LFPG 221030Z 05011KT 5000 BR FEW016 01/M04 Q1019 NOSIG

ElémentsDécodage
LFPG Station météo située sur l'aérodrome de PARIS Charles-de-Gaulle
221030Z émis le 22 du mois à 10h30 UTC
05011KT vent du 050°, 11 noeuds
5000 visibilité horizontale de 5000 mètres
BR brume
FEW016 nuages rares (1/8 à 2/8) à 1600 pieds
01/M04 température 01°C, point de rosée -04°C
 soit une humidité relative de 69%
Q1019 la pression au niveau de la mer (QNH) est de 1019 hPa
NOSIG Pas de changement significatif prévu au cours des deux heures suivant l'heure de l'observation